Flight Track Log - Related Links

Times and Time Zones

All times are in EDT time to prevent confusion due to time zone crossing. See the ASQ5439 flight status page for this flight to view local times or setup timezone preferences in your user account.

Time Position Orientation Groundspeed Altitude Reporting Facility
EDT Latitude Longitude Course Direction KTS MPH feet Rate Location/Type
Sat 09:49:19 AM 32.4572 -93.8436 11° North 143 165 800  Level Fort Worth Center
Sat 09:50:32 AM 32.5089 -93.8317 11° North 230 265 3,400 2,314 Climbing Fort Worth Center
Sat 09:51:39 AM 32.5419 -93.7442 66° East 298 343 6,200 2,504 Climbing Fort Worth Center
Sat 09:52:51 AM 32.5803 -93.6267 69° East 393 452 9,200 2,545 Climbing Fort Worth Center
Sat 09:53:51 AM 32.6000 -93.5247 77° East 332 382 11,800 2,000 Climbing Fort Worth Center
Sat 09:54:51 AM 32.5983 -93.4017 91° East 344 396 13,200 1,750 Climbing Fort Worth Center
Sat 09:55:51 AM 32.5942 -93.2736 92° East 381 438 15,300 1,650 Climbing Fort Worth Center
Sat 09:56:51 AM 32.5875 -93.1406 93° East 399 459 16,500 1,300 Climbing Fort Worth Center
Sat 09:57:51 AM 32.5847 -92.9953 91° East 423 487 17,900 1,150 Climbing Fort Worth Center
Sat 09:58:51 AM 32.5861 -92.8597 89° East 439 505 18,800 1,150 Climbing Fort Worth Center
Sat 09:59:51 AM 32.5806 -92.7119 93° East 444 511 20,200 1,200 Climbing Fort Worth Center
Sat 10:00:51 AM 32.5750 -92.5594 92° East 449 517 21,200 1,050 Climbing Fort Worth Center
Sat 10:01:51 AM 32.5669 -92.4122 94° East 449 517 22,300 1,050 Climbing Fort Worth Center
Sat 10:02:51 AM 32.5606 -92.2522 93° East 462 532 23,300 833 Climbing Fort Worth Center
Sat 10:05:20 AM 32.5403 -91.8308 93° East 488 562 25,200 689 Climbing Memphis Center
Sat 10:06:20 AM 32.5317 -91.6608 93° East 499 574 25,700 500 Climbing Memphis Center
Sat 10:07:20 AM 32.5269 -91.4908 92° East 512 589 26,200 500 Climbing Memphis Center
Sat 10:08:20 AM 32.5181 -91.3181 93° East 518 596 26,700 400 Climbing Memphis Center
Sat 10:09:20 AM 32.5086 -91.1431 94° East 518 596 27,000 150 Climbing Memphis Center
Sat 10:10:20 AM 32.5014 -90.9608 93° East 529 609 27,000  Level Memphis Center
Sat 10:11:20 AM 32.4939 -90.7808 93° East 541 623 27,000  Level Memphis Center
Sat 10:12:20 AM 32.4839 -90.6011 94° East 546 628 27,000  Level Memphis Center
Sat 10:13:20 AM 32.4736 -90.4164 94° East 546 628 27,000  Level Memphis Center
Sat 10:14:20 AM 32.4653 -90.2392 93° East 551 634 27,000  Level Memphis Center
Sat 10:15:20 AM 32.4567 -90.0742 93° East 557 641 27,000  Level Memphis Center
Sat 10:16:20 AM 32.4456 -89.8919 94° East 552 635 27,000  Level Memphis Center
Sat 10:17:20 AM 32.4344 -89.7100 94° East 557 641 27,000  Level Memphis Center
Sat 10:18:20 AM 32.4228 -89.5303 94° East 557 641 27,000  Level Memphis Center
Sat 10:19:20 AM 32.4131 -89.3483 94° East 552 635 27,000  Level Memphis Center
Sat 10:20:20 AM 32.4031 -89.1689 94° East 552 635 27,000  Level Memphis Center
Sat 10:21:20 AM 32.3908 -88.9869 95° East 558 642 27,000  Level Memphis Center
Sat 10:23:25 AM 32.4033 -88.5997 88° East 564 649 27,000  Level Atlanta Center
Sat 10:24:25 AM 32.4244 -88.4211 82° East 554 638 27,000  Level Atlanta Center
Sat 10:25:25 AM 32.4453 -88.2403 82° East 554 638 27,000  Level Atlanta Center
Sat 10:26:25 AM 32.4678 -88.0689 81° East 549 632 27,000  Level Atlanta Center
Sat 10:27:25 AM 32.4856 -87.9022 83° East 553 636 27,000  Level Atlanta Center
Sat 10:28:25 AM 32.5242 -87.7292 75° East 553 636 27,000  Level Atlanta Center
Sat 10:29:25 AM 32.5628 -87.5558 75° East 548 631 27,000  Level Atlanta Center
Sat 10:30:25 AM 32.6008 -87.3822 75° East 548 631 27,000  Level Atlanta Center
Sat 10:31:25 AM 32.6389 -87.2111 75° East 543 625 27,000  Level Atlanta Center
Sat 10:32:25 AM 32.6764 -87.0394 75° East 537 618 27,000  Level Atlanta Center
Sat 10:33:25 AM 32.7142 -86.8583 76° East 527 606 27,000  Level Atlanta Center
Sat 10:34:25 AM 32.7575 -86.6967 72° East 513 590 27,000  Level Atlanta Center
Sat 10:35:25 AM 32.8028 -86.5300 72° East 508 585 27,000  Level Atlanta Center
Sat 10:36:25 AM 32.8456 -86.3656 73° East 518 596 27,000 -100 Level Atlanta Center
Sat 10:37:25 AM 32.8861 -86.2033 73° East 513 590 26,800 -650 Descending Atlanta Center
Sat 10:38:25 AM 32.9283 -86.0433 73° East 508 585 25,700 -1,000 Descending Atlanta Center
Sat 10:39:25 AM 32.9661 -85.9008 72° East 479 551 24,800 -1,000 Descending Atlanta Center
Sat 10:40:25 AM 33.0017 -85.7628 73° East 448 516 23,700 -1,450 Descending Atlanta Center
Sat 10:41:25 AM 33.0389 -85.6347 71° East 427 491 21,900 -2,000 Descending Atlanta Center
Sat 10:42:25 AM 33.0903 -85.5142 63° Northeast 414 476 19,700 -1,950 Descending Atlanta Center
Sat 10:43:25 AM 33.1353 -85.4181 61° Northeast 382 440 18,000 -1,850 Descending Atlanta Center
Sat 10:44:25 AM 33.1469 -85.3017 83° East 357 411 16,000 -2,000 Descending Atlanta Center
Sat 10:45:25 AM 33.1606 -85.1953 81° East 334 384 14,000 -1,850 Descending Atlanta Center
Sat 10:46:25 AM 33.2031 -85.1014 62° Northeast 317 365 12,300 -1,050 Descending Atlanta Center
Sat 10:47:25 AM 33.2436 -85.0075 63° Northeast 312 359 11,900 -900 Descending Atlanta Center
Sat 10:48:25 AM 33.2817 -84.9258 61° Northeast 294 338 10,500 -1,700 Descending Atlanta Center
Sat 10:49:25 AM 33.3592 -84.9044 13° North 256 295 8,500 -1,250 Descending Atlanta Center
Sat 10:50:25 AM 33.4489 -84.9078 358° North 275 316 8,000 -300 Descending Atlanta Center
Sat 10:51:25 AM 33.5261 -84.9161 355° North 283 326 7,900 -500 Descending Atlanta Center
Sat 10:52:25 AM 33.6033 -84.9192 358° North 283 326 7,000 -450 Descending Atlanta Center
Sat 10:53:25 AM 33.6350 -84.8622 56° Northeast 189 217 7,000  Level Atlanta Center
Sat 10:53:40 AM 33.6333 -84.8500 99° East 176 203 7,000 -160 Level Atlanta TRACON
Sat 10:54:40 AM 33.6333 -84.7833 90° East 168 193 6,800 -650 Descending Atlanta TRACON
Sat 10:55:40 AM 33.6333 -84.7333 90° East 162 186 5,700 -950 Descending Atlanta TRACON
Sat 10:56:40 AM 33.6333 -84.6833 90° East 151 174 4,900 -737 Descending Atlanta TRACON
Sat 10:57:34 AM 33.6333 -84.6500 90° East 132 152 4,300 -700 Descending Atlanta TRACON
Sat 10:58:40 AM 33.6333 -84.6000 90° East 130 150 3,500 -714 Descending Atlanta TRACON
Sat 10:59:40 AM 33.6333 -84.5500 90° East 135 155 2,800 -700 Descending Atlanta TRACON
Sat 11:00:40 AM 33.6333 -84.5167 90° East 119 137 2,100 -650 Descending Atlanta TRACON
Sat 11:01:40 AM 33.6333 -84.4667 90° East 123 142 1,500 -600 Descending Atlanta TRACON
Sat 11:03:00 AM 33.6367 -84.4279 90° East  Level Estimated
Sat 11:10:00 AM 33.6367 -84.4279 90° East  Level Estimated
Sat 11:11:00 AM 33.6367 -84.4279 90° East  Level Estimated

Login

Don't have an account? Register now (free) for customized features, flight alerts, and more!